Terminal Aerodrome Forecast
Issued by NWS

Home | Current Version | Previous Version | Text Only | Print | Product List | Glossary On
Versions: 1 2 3 4 5 6 7 8 9 10 11 12 13 14 15 16 17 18 19 20 21
088
FTUS42 KMLB 040541
TAFFPR
TAF
KFPR 040541Z 0406/0506 21005KT P6SM SCT250
     FM041000 21005KT P6SM SCT030
     FM041200 21010KT P6SM BKN025
     FM041400 22011KT P6SM VCSH SCT009 BKN020
     FM041500 23010G18KT P6SM VCTS OVC019CB
      TEMPO 0416/0420 3SM TSRA OVC019CB
     FM042100 27011KT P6SM VCSH BKN025 BKN040=

USA.gov is the U.S. government's official web portal to all federal, state and local government web resources and services.